Terminal Aerodrome Forecast
Issued by NWS

Home | Current Version | Previous Version | Text Only | Print | Product List | Glossary On
Versions: 1 2 3 4 5 6 7 8 9 10 11 12 13 14 15 16 17 18
000
FTUS44 KSJT 050500
TAFJCT
TAF
KJCT 050520Z 0506/0606 VRB06KT P6SM SKC
     FM050800 VRB06KT P6SM OVC015
     FM051500 17011KT P6SM OVC015
     FM051800 17012G18KT P6SM BKN250=

USA.gov is the U.S. government's official web portal to all federal, state and local government web resources and services.